Cathay, North Dakota
Current Conditions -  °F | °C
As of 2:15 PM on Friday 21 Nov 2014 (Local Time) from K46D Reporting Station
Clear Clear  
Wind Chill: 32°   Ceiling: Unl
Heat Index: 39°   Visibility: 10mi
Dew Point: 27°   Wind: 10mph
Humidity: 61%   Direction: 240°WSW
Pressure: 29.66"   Gusts: 20mph
Location:  47.55°N, 99.41°W
Report Text: K46D 212015Z AUTO 24009G17KT 10SM CLR 04/M03 A2966 RMK AO2
Loading
Personal Weather Stations






























Interactive Weather Map New forecast layout! Learn more

10-Day Weather Forecast

Advertisements
Track Severe Weather on mobile